sensor_id;sensor_type;location;lat;lon;timestamp;temperature;humidity
66962;HTU21D;53897;51.126;5.868;2023-10-08T00:01:21;25.69;50.00
66962;HTU21D;53897;51.126;5.868;2023-10-08T00:03:48;25.68;49.98
66962;HTU21D;53897;51.126;5.868;2023-10-08T00:06:15;25.67;49.96
66962;HTU21D;53897;51.126;5.868;2023-10-08T00:08:41;25.67;49.95
66962;HTU21D;53897;51.126;5.868;2023-10-08T00:11:07;25.67;49.95
66962;HTU21D;53897;51.126;5.868;2023-10-08T00:13:36;25.66;49.92
66962;HTU21D;53897;51.126;5.868;2023-10-08T00:16:06;25.66;49.94
66962;HTU21D;53897;51.126;5.868;2023-10-08T00:18:35;25.65;49.94
66962;HTU21D;53897;51.126;5.868;2023-10-08T00:21:01;25.64;49.92
66962;HTU21D;53897;51.126;5.868;2023-10-08T00:23:46;25.64;49.93
66962;HTU21D;53897;51.126;5.868;2023-10-08T00:26:22;25.64;49.92
66962;HTU21D;53897;51.126;5.868;2023-10-08T00:28:56;25.62;49.90
66962;HTU21D;53897;51.126;5.868;2023-10-08T00:31:23;25.62;49.92
66962;HTU21D;53897;51.126;5.868;2023-10-08T00:33:56;25.61;49.94
66962;HTU21D;53897;51.126;5.868;2023-10-08T00:36:22;25.62;49.92
66962;HTU21D;53897;51.126;5.868;2023-10-08T00:38:52;25.59;49.92
66962;HTU21D;53897;51.126;5.868;2023-10-08T00:41:24;25.59;49.92
66962;HTU21D;53897;51.126;5.868;2023-10-08T00:43:54;25.60;49.90
66962;HTU21D;53897;51.126;5.868;2023-10-08T00:46:25;25.59;49.88
66962;HTU21D;53897;51.126;5.868;2023-10-08T00:48:58;25.59;49.86
66962;HTU21D;53897;51.126;5.868;2023-10-08T00:51:37;25.59;49.87
66962;HTU21D;53897;51.126;5.868;2023-10-08T00:54:09;25.58;49.89
66962;HTU21D;53897;51.126;5.868;2023-10-08T00:56:36;25.57;49.90
66962;HTU21D;53897;51.126;5.868;2023-10-08T00:59:12;25.57;49.91
66962;HTU21D;53897;51.126;5.868;2023-10-08T01:01:39;25.56;49.93
66962;HTU21D;53897;51.126;5.868;2023-10-08T01:04:05;25.54;49.95
66962;HTU21D;53897;51.126;5.868;2023-10-08T01:06:38;25.54;49.92
66962;HTU21D;53897;51.126;5.868;2023-10-08T01:09:05;25.53;49.91
66962;HTU21D;53897;51.126;5.868;2023-10-08T01:11:44;25.54;49.87
66962;HTU21D;53897;51.126;5.868;2023-10-08T01:14:19;25.53;49.83
66962;HTU21D;53897;51.126;5.868;2023-10-08T01:16:47;25.52;49.83
66962;HTU21D;53897;51.126;5.868;2023-10-08T01:19:18;25.52;49.83
66962;HTU21D;53897;51.126;5.868;2023-10-08T01:21:46;25.51;49.82
66962;HTU21D;53897;51.126;5.868;2023-10-08T01:24:12;25.50;49.83
66962;HTU21D;53897;51.126;5.868;2023-10-08T01:26:42;25.50;49.81
66962;HTU21D;53897;51.126;5.868;2023-10-08T01:29:11;25.50;49.82
66962;HTU21D;53897;51.126;5.868;2023-10-08T01:31:46;25.49;49.82
66962;HTU21D;53897;51.126;5.868;2023-10-08T01:34:12;25.48;49.82
66962;HTU21D;53897;51.126;5.868;2023-10-08T01:36:42;25.48;49.81
66962;HTU21D;53897;51.126;5.868;2023-10-08T01:39:11;25.48;49.80
66962;HTU21D;53897;51.126;5.868;2023-10-08T01:41:45;25.46;49.79
66962;HTU21D;53897;51.126;5.868;2023-10-08T01:44:12;25.46;49.80
66962;HTU21D;53897;51.126;5.868;2023-10-08T01:46:38;25.46;49.82
66962;HTU21D;53897;51.126;5.868;2023-10-08T01:49:07;25.47;49.81
66962;HTU21D;53897;51.126;5.868;2023-10-08T01:51:40;25.45;49.79
66962;HTU21D;53897;51.126;5.868;2023-10-08T01:54:15;25.45;49.78
66962;HTU21D;53897;51.126;5.868;2023-10-08T01:56:43;25.43;49.72
66962;HTU21D;53897;51.126;5.868;2023-10-08T01:59:11;25.44;49.68
66962;HTU21D;53897;51.126;5.868;2023-10-08T02:01:40;25.42;49.66
66962;HTU21D;53897;51.126;5.868;2023-10-08T02:04:07;25.43;49.68
66962;HTU21D;53897;51.126;5.868;2023-10-08T02:06:34;25.43;49.69
66962;HTU21D;53897;51.126;5.868;2023-10-08T02:09:00;25.42;49.69
66962;HTU21D;53897;51.126;5.868;2023-10-08T02:11:48;25.40;49.69
66962;HTU21D;53897;51.126;5.868;2023-10-08T02:14:19;25.39;49.66
66962;HTU21D;53897;51.126;5.868;2023-10-08T02:16:46;25.39;49.64
66962;HTU21D;53897;51.126;5.868;2023-10-08T02:19:13;25.39;49.66
66962;HTU21D;53897;51.126;5.868;2023-10-08T02:21:40;25.38;49.66
66962;HTU21D;53897;51.126;5.868;2023-10-08T02:24:07;25.38;49.68
66962;HTU21D;53897;51.126;5.868;2023-10-08T02:26:34;25.36;49.67
66962;HTU21D;53897;51.126;5.868;2023-10-08T02:29:04;25.36;49.66
66962;HTU21D;53897;51.126;5.868;2023-10-08T02:31:40;25.36;49.64
66962;HTU21D;53897;51.126;5.868;2023-10-08T02:34:07;25.35;49.64
66962;HTU21D;53897;51.126;5.868;2023-10-08T02:36:36;25.35;49.61
66962;HTU21D;53897;51.126;5.868;2023-10-08T02:39:03;25.35;49.61
66962;HTU21D;53897;51.126;5.868;2023-10-08T02:41:45;25.35;49.61
66962;HTU21D;53897;51.126;5.868;2023-10-08T02:44:12;25.35;49.62
66962;HTU21D;53897;51.126;5.868;2023-10-08T02:46:43;25.33;49.61
66962;HTU21D;53897;51.126;5.868;2023-10-08T02:49:18;25.34;49.60
66962;HTU21D;53897;51.126;5.868;2023-10-08T02:51:49;25.32;49.58
66962;HTU21D;53897;51.126;5.868;2023-10-08T02:54:16;25.32;49.60
66962;HTU21D;53897;51.126;5.868;2023-10-08T02:56:51;25.33;49.56
66962;HTU21D;53897;51.126;5.868;2023-10-08T02:59:18;25.30;49.54
66962;HTU21D;53897;51.126;5.868;2023-10-08T03:01:47;25.31;49.52
66962;HTU21D;53897;51.126;5.868;2023-10-08T03:04:15;25.31;49.50
66962;HTU21D;53897;51.126;5.868;2023-10-08T03:06:49;25.30;49.50
66962;HTU21D;53897;51.126;5.868;2023-10-08T03:09:22;25.29;49.47
66962;HTU21D;53897;51.126;5.868;2023-10-08T03:11:57;25.29;49.49
66962;HTU21D;53897;51.126;5.868;2023-10-08T03:14:33;25.29;49.46
66962;HTU21D;53897;51.126;5.868;2023-10-08T03:17:08;25.28;49.45
66962;HTU21D;53897;51.126;5.868;2023-10-08T03:19:34;25.28;49.44
66962;HTU21D;53897;51.126;5.868;2023-10-08T03:22:01;25.28;49.44
66962;HTU21D;53897;51.126;5.868;2023-10-08T03:24:30;25.27;49.44
66962;HTU21D;53897;51.126;5.868;2023-10-08T03:26:57;25.27;49.44
66962;HTU21D;53897;51.126;5.868;2023-10-08T03:29:35;25.24;49.44
66962;HTU21D;53897;51.126;5.868;2023-10-08T03:32:09;25.25;49.44
66962;HTU21D;53897;51.126;5.868;2023-10-08T03:34:40;25.24;49.44
66962;HTU21D;53897;51.126;5.868;2023-10-08T03:37:09;25.23;49.43
66962;HTU21D;53897;51.126;5.868;2023-10-08T03:39:35;25.24;49.42
66962;HTU21D;53897;51.126;5.868;2023-10-08T03:42:26;25.24;49.40
66962;HTU21D;53897;51.126;5.868;2023-10-08T03:44:59;25.23;49.37
66962;HTU21D;53897;51.126;5.868;2023-10-08T03:47:36;25.21;49.35
66962;HTU21D;53897;51.126;5.868;2023-10-08T03:50:05;25.22;49.32
66962;HTU21D;53897;51.126;5.868;2023-10-08T03:52:31;25.21;49.31
66962;HTU21D;53897;51.126;5.868;2023-10-08T03:54:57;25.21;49.31
66962;HTU21D;53897;51.126;5.868;2023-10-08T03:57:41;25.21;49.27
66962;HTU21D;53897;51.126;5.868;2023-10-08T04:00:11;25.19;49.27
66962;HTU21D;53897;51.126;5.868;2023-10-08T04:02:55;25.19;49.24
66962;HTU21D;53897;51.126;5.868;2023-10-08T04:05:22;25.19;49.21
66962;HTU21D;53897;51.126;5.868;2023-10-08T04:07:53;25.18;49.17
66962;HTU21D;53897;51.126;5.868;2023-10-08T04:10:27;25.17;49.13
66962;HTU21D;53897;51.126;5.868;2023-10-08T04:13:08;25.17;49.14
66962;HTU21D;53897;51.126;5.868;2023-10-08T04:15:35;25.15;49.16
66962;HTU21D;53897;51.126;5.868;2023-10-08T04:18:07;25.15;49.18
66962;HTU21D;53897;51.126;5.868;2023-10-08T04:20:32;25.14;49.21
66962;HTU21D;53897;51.126;5.868;2023-10-08T04:23:02;25.13;49.19
66962;HTU21D;53897;51.126;5.868;2023-10-08T04:25:31;25.14;49.16
66962;HTU21D;53897;51.126;5.868;2023-10-08T04:27:57;25.14;49.15
66962;HTU21D;53897;51.126;5.868;2023-10-08T04:30:27;25.16;49.12
66962;HTU21D;53897;51.126;5.868;2023-10-08T04:33:03;25.16;49.18
66962;HTU21D;53897;51.126;5.868;2023-10-08T04:35:36;25.15;49.21
66962;HTU21D;53897;51.126;5.868;2023-10-08T04:38:05;25.14;49.24
66962;HTU21D;53897;51.126;5.868;2023-10-08T04:40:35;25.13;49.30
66962;HTU21D;53897;51.126;5.868;2023-10-08T04:43:06;25.12;49.34
66962;HTU21D;53897;51.126;5.868;2023-10-08T04:45:36;25.10;49.40
66962;HTU21D;53897;51.126;5.868;2023-10-08T04:48:04;25.09;49.44
66962;HTU21D;53897;51.126;5.868;2023-10-08T04:50:35;25.07;49.49
66962;HTU21D;53897;51.126;5.868;2023-10-08T04:53:03;25.07;49.53
66962;HTU21D;53897;51.126;5.868;2023-10-08T04:55:36;25.07;49.53
66962;HTU21D;53897;51.126;5.868;2023-10-08T04:58:07;25.07;49.57
66962;HTU21D;53897;51.126;5.868;2023-10-08T05:00:45;25.05;49.60
66962;HTU21D;53897;51.126;5.868;2023-10-08T05:03:25;25.04;49.62
66962;HTU21D;53897;51.126;5.868;2023-10-08T05:05:57;25.03;49.66
66962;HTU21D;53897;51.126;5.868;2023-10-08T05:08:32;25.00;49.70
66962;HTU21D;53897;51.126;5.868;2023-10-08T05:11:23;24.99;49.73
66962;HTU21D;53897;51.126;5.868;2023-10-08T05:14:12;25.00;49.71
66962;HTU21D;53897;51.126;5.868;2023-10-08T05:17:00;24.98;49.73
66962;HTU21D;53897;51.126;5.868;2023-10-08T05:19:32;24.95;49.79
66962;HTU21D;53897;51.126;5.868;2023-10-08T05:22:12;24.94;49.81
66962;HTU21D;53897;51.126;5.868;2023-10-08T05:25:07;24.93;49.82
66962;HTU21D;53897;51.126;5.868;2023-10-08T05:27:40;24.92;49.87
66962;HTU21D;53897;51.126;5.868;2023-10-08T05:30:15;24.92;49.85
66962;HTU21D;53897;51.126;5.868;2023-10-08T05:32:45;24.94;49.83
66962;HTU21D;53897;51.126;5.868;2023-10-08T05:35:35;24.95;49.76
66962;HTU21D;53897;51.126;5.868;2023-10-08T05:38:18;24.98;49.76
66962;HTU21D;53897;51.126;5.868;2023-10-08T05:40:57;25.00;49.70
66962;HTU21D;53897;51.126;5.868;2023-10-08T05:43:35;25.01;49.60
66962;HTU21D;53897;51.126;5.868;2023-10-08T05:46:08;25.02;49.55
66962;HTU21D;53897;51.126;5.868;2023-10-08T05:48:59;25.03;49.49
66962;HTU21D;53897;51.126;5.868;2023-10-08T05:51:30;25.06;49.47
66962;HTU21D;53897;51.126;5.868;2023-10-08T05:54:19;25.05;49.40
66962;HTU21D;53897;51.126;5.868;2023-10-08T05:57:04;25.06;49.39
66962;HTU21D;53897;51.126;5.868;2023-10-08T05:59:41;25.07;49.34
66962;HTU21D;53897;51.126;5.868;2023-10-08T06:02:32;25.07;49.39
66962;HTU21D;53897;51.126;5.868;2023-10-08T06:04:59;25.07;49.43
66962;HTU21D;53897;51.126;5.868;2023-10-08T06:07:45;25.07;49.42
66962;HTU21D;53897;51.126;5.868;2023-10-08T06:10:15;25.07;49.40
66962;HTU21D;53897;51.126;5.868;2023-10-08T06:15:51;25.07;49.33
66962;HTU21D;53897;51.126;5.868;2023-10-08T06:18:22;25.07;49.30
66962;HTU21D;53897;51.126;5.868;2023-10-08T06:20:58;25.08;49.34
66962;HTU21D;53897;51.126;5.868;2023-10-08T06:23:30;25.08;49.30
66962;HTU21D;53897;51.126;5.868;2023-10-08T06:26:01;25.08;49.36
66962;HTU21D;53897;51.126;5.868;2023-10-08T06:28:40;25.07;49.38
66962;HTU21D;53897;51.126;5.868;2023-10-08T06:31:07;25.07;49.40
66962;HTU21D;53897;51.126;5.868;2023-10-08T06:33:44;25.07;49.43
66962;HTU21D;53897;51.126;5.868;2023-10-08T06:36:10;25.06;49.48
66962;HTU21D;53897;51.126;5.868;2023-10-08T06:38:37;25.06;49.47
66962;HTU21D;53897;51.126;5.868;2023-10-08T06:41:05;25.06;49.49
66962;HTU21D;53897;51.126;5.868;2023-10-08T06:43:36;25.06;49.52
66962;HTU21D;53897;51.126;5.868;2023-10-08T06:46:03;25.06;49.48
66962;HTU21D;53897;51.126;5.868;2023-10-08T06:48:33;25.06;49.49
66962;HTU21D;53897;51.126;5.868;2023-10-08T06:51:01;25.06;49.44
66962;HTU21D;53897;51.126;5.868;2023-10-08T06:53:36;25.07;49.40
66962;HTU21D;53897;51.126;5.868;2023-10-08T06:56:04;25.07;49.40
66962;HTU21D;53897;51.126;5.868;2023-10-08T06:58:31;25.06;49.39
66962;HTU21D;53897;51.126;5.868;2023-10-08T07:01:00;25.05;49.39
66962;HTU21D;53897;51.126;5.868;2023-10-08T07:03:36;25.06;49.36
66962;HTU21D;53897;51.126;5.868;2023-10-08T07:06:02;25.05;49.34
66962;HTU21D;53897;51.126;5.868;2023-10-08T07:08:30;25.04;49.34
66962;HTU21D;53897;51.126;5.868;2023-10-08T07:11:02;25.03;49.42
66962;HTU21D;53897;51.126;5.868;2023-10-08T07:13:33;25.03;49.44
66962;HTU21D;53897;51.126;5.868;2023-10-08T07:16:01;25.03;49.40
66962;HTU21D;53897;51.126;5.868;2023-10-08T07:18:30;25.03;49.41
66962;HTU21D;53897;51.126;5.868;2023-10-08T07:20:58;25.02;49.43
66962;HTU21D;53897;51.126;5.868;2023-10-08T07:23:28;25.01;49.43
66962;HTU21D;53897;51.126;5.868;2023-10-08T07:26:02;24.99;49.47
66962;HTU21D;53897;51.126;5.868;2023-10-08T07:28:41;24.98;49.54
66962;HTU21D;53897;51.126;5.868;2023-10-08T07:31:14;24.98;49.53
66962;HTU21D;53897;51.126;5.868;2023-10-08T07:33:48;24.97;49.58
66962;HTU21D;53897;51.126;5.868;2023-10-08T07:36:24;24.97;49.64
66962;HTU21D;53897;51.126;5.868;2023-10-08T07:38:51;24.99;49.63
66962;HTU21D;53897;51.126;5.868;2023-10-08T07:41:17;25.00;49.64
66962;HTU21D;53897;51.126;5.868;2023-10-08T07:43:49;25.00;49.63
66962;HTU21D;53897;51.126;5.868;2023-10-08T07:46:27;25.01;49.58
66962;HTU21D;53897;51.126;5.868;2023-10-08T07:48:56;25.01;49.53
66962;HTU21D;53897;51.126;5.868;2023-10-08T07:51:24;25.03;49.44
66962;HTU21D;53897;51.126;5.868;2023-10-08T07:53:53;25.03;49.39
66962;HTU21D;53897;51.126;5.868;2023-10-08T07:56:22;25.04;49.37
66962;HTU21D;53897;51.126;5.868;2023-10-08T07:58:52;25.03;49.38
66962;HTU21D;53897;51.126;5.868;2023-10-08T08:01:18;25.04;49.37
66962;HTU21D;53897;51.126;5.868;2023-10-08T08:03:46;25.05;49.36
66962;HTU21D;53897;51.126;5.868;2023-10-08T08:06:14;25.06;49.36
66962;HTU21D;53897;51.126;5.868;2023-10-08T08:08:41;25.07;49.36
66962;HTU21D;53897;51.126;5.868;2023-10-08T08:11:08;25.07;49.34
66962;HTU21D;53897;51.126;5.868;2023-10-08T08:13:44;25.09;49.34
66962;HTU21D;53897;51.126;5.868;2023-10-08T08:16:14;25.07;49.32
66962;HTU21D;53897;51.126;5.868;2023-10-08T08:18:46;25.10;49.34
66962;HTU21D;53897;51.126;5.868;2023-10-08T08:21:13;25.09;49.32
66962;HTU21D;53897;51.126;5.868;2023-10-08T08:23:43;25.12;49.31
66962;HTU21D;53897;51.126;5.868;2023-10-08T08:26:25;25.12;49.31
66962;HTU21D;53897;51.126;5.868;2023-10-08T08:29:00;25.12;49.31
66962;HTU21D;53897;51.126;5.868;2023-10-08T08:31:28;25.13;49.30
66962;HTU21D;53897;51.126;5.868;2023-10-08T08:33:58;25.14;49.30
66962;HTU21D;53897;51.126;5.868;2023-10-08T08:36:50;25.13;49.29
66962;HTU21D;53897;51.126;5.868;2023-10-08T08:39:16;25.14;49.28
66962;HTU21D;53897;51.126;5.868;2023-10-08T08:41:59;25.14;49.29
66962;HTU21D;53897;51.126;5.868;2023-10-08T08:44:28;25.16;49.28
66962;HTU21D;53897;51.126;5.868;2023-10-08T08:47:00;25.17;49.29
66962;HTU21D;53897;51.126;5.868;2023-10-08T08:49:35;25.17;49.27
66962;HTU21D;53897;51.126;5.868;2023-10-08T08:52:03;25.17;49.27
66962;HTU21D;53897;51.126;5.868;2023-10-08T08:54:29;25.17;49.25
66962;HTU21D;53897;51.126;5.868;2023-10-08T08:56:57;25.18;49.26
66962;HTU21D;53897;51.126;5.868;2023-10-08T08:59:26;25.19;49.26
66962;HTU21D;53897;51.126;5.868;2023-10-08T09:01:54;25.19;49.25
66962;HTU21D;53897;51.126;5.868;2023-10-08T09:04:40;25.20;49.24
66962;HTU21D;53897;51.126;5.868;2023-10-08T09:07:06;25.21;49.23
66962;HTU21D;53897;51.126;5.868;2023-10-08T09:09:33;25.21;49.22
66962;HTU21D;53897;51.126;5.868;2023-10-08T09:11:59;25.21;49.22
66962;HTU21D;53897;51.126;5.868;2023-10-08T09:14:27;25.21;49.22
66962;HTU21D;53897;51.126;5.868;2023-10-08T09:17:00;25.22;49.18
66962;HTU21D;53897;51.126;5.868;2023-10-08T09:19:26;25.22;49.20
66962;HTU21D;53897;51.126;5.868;2023-10-08T09:22:04;25.22;49.20
66962;HTU21D;53897;51.126;5.868;2023-10-08T09:24:35;25.22;49.19
66962;HTU21D;53897;51.126;5.868;2023-10-08T09:27:06;25.22;49.19
66962;HTU21D;53897;51.126;5.868;2023-10-08T09:29:32;25.23;49.19
66962;HTU21D;53897;51.126;5.868;2023-10-08T09:32:04;25.22;49.20
66962;HTU21D;53897;51.126;5.868;2023-10-08T09:34:32;25.23;49.18
66962;HTU21D;53897;51.126;5.868;2023-10-08T09:36:59;25.22;49.20
66962;HTU21D;53897;51.126;5.868;2023-10-08T09:39:29;25.22;49.19
66962;HTU21D;53897;51.126;5.868;2023-10-08T09:42:01;25.23;49.18
66962;HTU21D;53897;51.126;5.868;2023-10-08T09:44:37;25.22;49.18
66962;HTU21D;53897;51.126;5.868;2023-10-08T09:47:06;25.23;49.20
66962;HTU21D;53897;51.126;5.868;2023-10-08T09:49:32;25.23;49.18
66962;HTU21D;53897;51.126;5.868;2023-10-08T09:52:03;25.24;49.19
66962;HTU21D;53897;51.126;5.868;2023-10-08T09:57:07;25.24;49.18
66962;HTU21D;53897;51.126;5.868;2023-10-08T09:59:34;25.24;49.17
66962;HTU21D;53897;51.126;5.868;2023-10-08T10:02:01;25.24;49.18
66962;HTU21D;53897;51.126;5.868;2023-10-08T10:04:31;25.25;49.17
66962;HTU21D;53897;51.126;5.868;2023-10-08T10:07:10;25.25;49.16
66962;HTU21D;53897;51.126;5.868;2023-10-08T10:09:39;25.25;49.17
66962;HTU21D;53897;51.126;5.868;2023-10-08T10:12:05;25.25;49.19
66962;HTU21D;53897;51.126;5.868;2023-10-08T10:14:47;25.25;49.19
66962;HTU21D;53897;51.126;5.868;2023-10-08T10:17:15;25.27;49.18
66962;HTU21D;53897;51.126;5.868;2023-10-08T10:19:42;25.25;49.16
66962;HTU21D;53897;51.126;5.868;2023-10-08T10:22:13;25.27;49.14
66962;HTU21D;53897;51.126;5.868;2023-10-08T10:24:42;25.28;49.14
66962;HTU21D;53897;51.126;5.868;2023-10-08T10:27:12;25.28;49.12
66962;HTU21D;53897;51.126;5.868;2023-10-08T10:29:41;25.29;49.14
66962;HTU21D;53897;51.126;5.868;2023-10-08T10:32:12;25.30;49.11
66962;HTU21D;53897;51.126;5.868;2023-10-08T10:34:43;25.30;49.08
66962;HTU21D;53897;51.126;5.868;2023-10-08T10:37:10;25.29;49.07
66962;HTU21D;53897;51.126;5.868;2023-10-08T10:39:52;25.30;49.07
66962;HTU21D;53897;51.126;5.868;2023-10-08T10:42:20;25.32;49.08
66962;HTU21D;53897;51.126;5.868;2023-10-08T10:44:47;25.31;49.08
66962;HTU21D;53897;51.126;5.868;2023-10-08T10:47:18;25.31;49.09
66962;HTU21D;53897;51.126;5.868;2023-10-08T10:49:46;25.33;49.09
66962;HTU21D;53897;51.126;5.868;2023-10-08T10:52:40;25.33;49.09
66962;HTU21D;53897;51.126;5.868;2023-10-08T10:55:19;25.33;49.11
66962;HTU21D;53897;51.126;5.868;2023-10-08T10:57:58;25.33;49.11
66962;HTU21D;53897;51.126;5.868;2023-10-08T11:00:38;25.33;49.11
66962;HTU21D;53897;51.126;5.868;2023-10-08T11:03:06;25.34;49.11
66962;HTU21D;53897;51.126;5.868;2023-10-08T11:05:55;25.34;49.13
66962;HTU21D;53897;51.126;5.868;2023-10-08T11:08:26;25.34;49.13
66962;HTU21D;53897;51.126;5.868;2023-10-08T11:10:57;25.34;49.11
66962;HTU21D;53897;51.126;5.868;2023-10-08T11:13:25;25.34;49.11
66962;HTU21D;53897;51.126;5.868;2023-10-08T11:16:04;25.36;49.08
66962;HTU21D;53897;51.126;5.868;2023-10-08T11:18:31;25.35;49.09
66962;HTU21D;53897;51.126;5.868;2023-10-08T11:21:09;25.35;49.08
66962;HTU21D;53897;51.126;5.868;2023-10-08T11:23:52;25.34;49.11
66962;HTU21D;53897;51.126;5.868;2023-10-08T11:26:37;25.35;49.11
66962;HTU21D;53897;51.126;5.868;2023-10-08T11:29:20;25.35;49.12
66962;HTU21D;53897;51.126;5.868;2023-10-08T11:31:51;25.37;49.14
66962;HTU21D;53897;51.126;5.868;2023-10-08T11:34:17;25.36;49.15
66962;HTU21D;53897;51.126;5.868;2023-10-08T11:36:52;25.37;49.15
66962;HTU21D;53897;51.126;5.868;2023-10-08T11:39:21;25.37;49.18
66962;HTU21D;53897;51.126;5.868;2023-10-08T11:41:57;25.37;49.19
66962;HTU21D;53897;51.126;5.868;2023-10-08T11:44:29;25.37;49.18
66962;HTU21D;53897;51.126;5.868;2023-10-08T11:46:55;25.37;49.19
66962;HTU21D;53897;51.126;5.868;2023-10-08T11:49:31;25.37;49.28
66962;HTU21D;53897;51.126;5.868;2023-10-08T11:52:02;25.37;49.37
66962;HTU21D;53897;51.126;5.868;2023-10-08T11:54:27;25.37;49.42
66962;HTU21D;53897;51.126;5.868;2023-10-08T11:56:53;25.37;49.50
66962;HTU21D;53897;51.126;5.868;2023-10-08T11:59:20;25.37;49.47
66962;HTU21D;53897;51.126;5.868;2023-10-08T12:01:50;25.38;49.45
66962;HTU21D;53897;51.126;5.868;2023-10-08T12:04:16;25.39;49.45
66962;HTU21D;53897;51.126;5.868;2023-10-08T12:06:43;25.42;49.43
66962;HTU21D;53897;51.126;5.868;2023-10-08T12:09:13;25.43;49.43
66962;HTU21D;53897;51.126;5.868;2023-10-08T12:11:39;25.44;49.42
66962;HTU21D;53897;51.126;5.868;2023-10-08T12:14:06;25.45;49.43
66962;HTU21D;53897;51.126;5.868;2023-10-08T12:16:32;25.46;49.41
66962;HTU21D;53897;51.126;5.868;2023-10-08T12:19:02;25.48;49.44
66962;HTU21D;53897;51.126;5.868;2023-10-08T12:21:41;25.48;49.45
66962;HTU21D;53897;51.126;5.868;2023-10-08T12:24:07;25.49;49.44
66962;HTU21D;53897;51.126;5.868;2023-10-08T12:26:36;25.49;49.45
66962;HTU21D;53897;51.126;5.868;2023-10-08T12:29:01;25.50;49.47
66962;HTU21D;53897;51.126;5.868;2023-10-08T12:31:27;25.52;49.45
66962;HTU21D;53897;51.126;5.868;2023-10-08T12:33:54;25.52;49.46
66962;HTU21D;53897;51.126;5.868;2023-10-08T12:36:23;25.54;49.50
66962;HTU21D;53897;51.126;5.868;2023-10-08T12:38:52;25.54;49.47
66962;HTU21D;53897;51.126;5.868;2023-10-08T12:41:25;25.54;49.52
66962;HTU21D;53897;51.126;5.868;2023-10-08T12:43:52;25.57;49.55
66962;HTU21D;53897;51.126;5.868;2023-10-08T12:46:19;25.57;49.56
66962;HTU21D;53897;51.126;5.868;2023-10-08T12:48:53;25.57;49.56
66962;HTU21D;53897;51.126;5.868;2023-10-08T12:51:21;25.58;49.58
66962;HTU21D;53897;51.126;5.868;2023-10-08T12:53:54;25.59;49.57
66962;HTU21D;53897;51.126;5.868;2023-10-08T12:56:30;25.59;49.59
66962;HTU21D;53897;51.126;5.868;2023-10-08T12:59:04;25.61;49.59
66962;HTU21D;53897;51.126;5.868;2023-10-08T13:01:36;25.61;49.59
66962;HTU21D;53897;51.126;5.868;2023-10-08T13:04:06;25.62;49.60
66962;HTU21D;53897;51.126;5.868;2023-10-08T13:06:41;25.63;49.60
66962;HTU21D;53897;51.126;5.868;2023-10-08T13:09:10;25.64;49.63
66962;HTU21D;53897;51.126;5.868;2023-10-08T13:11:39;25.65;49.63
66962;HTU21D;53897;51.126;5.868;2023-10-08T13:14:05;25.65;49.63
66962;HTU21D;53897;51.126;5.868;2023-10-08T13:16:31;25.67;49.62
66962;HTU21D;53897;51.126;5.868;2023-10-08T13:18:58;25.67;49.60
66962;HTU21D;53897;51.126;5.868;2023-10-08T13:21:27;25.67;49.63
66962;HTU21D;53897;51.126;5.868;2023-10-08T13:23:55;25.67;49.63
66962;HTU21D;53897;51.126;5.868;2023-10-08T13:26:26;25.68;49.67
66962;HTU21D;53897;51.126;5.868;2023-10-08T13:29:00;25.69;49.69
66962;HTU21D;53897;51.126;5.868;2023-10-08T13:31:27;25.71;49.66
66962;HTU21D;53897;51.126;5.868;2023-10-08T13:33:53;25.69;49.68
66962;HTU21D;53897;51.126;5.868;2023-10-08T13:36:23;25.72;49.70
66962;HTU21D;53897;51.126;5.868;2023-10-08T13:38:50;25.72;49.71
66962;HTU21D;53897;51.126;5.868;2023-10-08T13:41:17;25.74;49.72
66962;HTU21D;53897;51.126;5.868;2023-10-08T13:43:47;25.74;49.69
66962;HTU21D;53897;51.126;5.868;2023-10-08T13:46:16;25.74;49.69
66962;HTU21D;53897;51.126;5.868;2023-10-08T13:48:46;25.75;49.68
66962;HTU21D;53897;51.126;5.868;2023-10-08T13:51:14;25.74;49.67
66962;HTU21D;53897;51.126;5.868;2023-10-08T13:53:41;25.75;49.66
66962;HTU21D;53897;51.126;5.868;2023-10-08T13:56:11;25.75;49.67
66962;HTU21D;53897;51.126;5.868;2023-10-08T13:58:38;25.76;49.66
66962;HTU21D;53897;51.126;5.868;2023-10-08T14:01:12;25.76;49.66
66962;HTU21D;53897;51.126;5.868;2023-10-08T14:03:50;25.77;49.68
66962;HTU21D;53897;51.126;5.868;2023-10-08T14:06:22;25.77;49.69
66962;HTU21D;53897;51.126;5.868;2023-10-08T14:08:48;25.77;49.69
66962;HTU21D;53897;51.126;5.868;2023-10-08T14:11:21;25.78;49.69
66962;HTU21D;53897;51.126;5.868;2023-10-08T14:13:51;25.77;49.69
66962;HTU21D;53897;51.126;5.868;2023-10-08T14:16:19;25.78;49.69
66962;HTU21D;53897;51.126;5.868;2023-10-08T14:18:50;25.78;49.71
66962;HTU21D;53897;51.126;5.868;2023-10-08T14:21:20;25.78;49.72
66962;HTU21D;53897;51.126;5.868;2023-10-08T14:23:50;25.78;49.70
66962;HTU21D;53897;51.126;5.868;2023-10-08T14:26:18;25.79;49.72
66962;HTU21D;53897;51.126;5.868;2023-10-08T14:28:48;25.79;49.72
66962;HTU21D;53897;51.126;5.868;2023-10-08T14:31:24;25.81;49.71
66962;HTU21D;53897;51.126;5.868;2023-10-08T14:33:52;25.81;49.70
66962;HTU21D;53897;51.126;5.868;2023-10-08T14:36:25;25.80;49.69
66962;HTU21D;53897;51.126;5.868;2023-10-08T14:39:10;25.80;49.63
66962;HTU21D;53897;51.126;5.868;2023-10-08T14:41:54;25.81;49.62
66962;HTU21D;53897;51.126;5.868;2023-10-08T14:44:39;25.81;49.63
66962;HTU21D;53897;51.126;5.868;2023-10-08T14:47:05;25.81;49.66
66962;HTU21D;53897;51.126;5.868;2023-10-08T14:49:31;25.81;49.66
66962;HTU21D;53897;51.126;5.868;2023-10-08T14:51:58;25.80;49.70
66962;HTU21D;53897;51.126;5.868;2023-10-08T14:54:24;25.81;49.72
66962;HTU21D;53897;51.126;5.868;2023-10-08T14:56:50;25.82;49.76
66962;HTU21D;53897;51.126;5.868;2023-10-08T14:59:17;25.81;49.79
66962;HTU21D;53897;51.126;5.868;2023-10-08T15:01:44;25.82;49.82
66962;HTU21D;53897;51.126;5.868;2023-10-08T15:04:10;25.82;49.89
66962;HTU21D;53897;51.126;5.868;2023-10-08T15:06:37;25.82;49.95
66962;HTU21D;53897;51.126;5.868;2023-10-08T15:09:05;25.81;50.00
66962;HTU21D;53897;51.126;5.868;2023-10-08T15:11:33;25.82;50.00
66962;HTU21D;53897;51.126;5.868;2023-10-08T15:14:04;25.80;50.04
66962;HTU21D;53897;51.126;5.868;2023-10-08T15:16:37;25.83;50.05
66962;HTU21D;53897;51.126;5.868;2023-10-08T15:19:02;25.81;50.09
66962;HTU21D;53897;51.126;5.868;2023-10-08T15:21:30;25.82;50.04
66962;HTU21D;53897;51.126;5.868;2023-10-08T15:23:59;25.82;50.01
66962;HTU21D;53897;51.126;5.868;2023-10-08T15:26:32;25.83;50.01
66962;HTU21D;53897;51.126;5.868;2023-10-08T15:28:58;25.83;50.09
66962;HTU21D;53897;51.126;5.868;2023-10-08T15:31:23;25.84;50.23
66962;HTU21D;53897;51.126;5.868;2023-10-08T15:33:50;25.86;50.33
66962;HTU21D;53897;51.126;5.868;2023-10-08T15:36:16;25.84;50.43
66962;HTU21D;53897;51.126;5.868;2023-10-08T15:38:42;25.87;50.47
66962;HTU21D;53897;51.126;5.868;2023-10-08T15:41:07;25.86;50.58
66962;HTU21D;53897;51.126;5.868;2023-10-08T15:43:35;25.89;50.65
66962;HTU21D;53897;51.126;5.868;2023-10-08T15:46:00;25.89;50.76